Latest Weather Observations for Cape Otway

IDV60801

Issued at 9:31 pm EST Saturday 23 May 2015 (issued every 30 minutes, with the page automatically refreshed every 10 minutes)

About weather observations | Map of weather stations | Latest weather observations for VIC | Other Formats
Station Details ID: 090015 Name: CAPE OTWAY LIGHTHOUSE Lat: -38.86 Lon: 143.51 Height: 82.0 m
Data from the previous 72 hours. | See also: Recent months at Cape Otway
Date/Time
EST
Temp
°C
App
Temp
°C
Dew
Point
Rel
Hum
%
Delta-T
°C
Wind Press
QNH
hPa
Press
MSL
hPa
Rain
since 9 am
mm
Dir
 
Spd
km/h
Gust
km/h
Spd
kts
Gust
kts
23/09:30pm 9.4 7.2 6.3 81 1.4 NNE 7 11 4 6 1032.0 - 0.0
23/09:00pm 9.4 7.4 6.3 81 1.4 NE 6 11 3 6 1032.1 1032.1 0.0
23/08:30pm 9.7 8.2 6.6 81 1.5 ENE 4 7 2 4 1032.1 - 0.0
23/08:00pm 9.6 7.1 6.5 81 1.4 NNE 9 15 5 8 1032.1 - 0.0
23/07:30pm 9.6 7.1 6.5 81 1.4 NNE 9 17 5 9 1032.3 - 0.0
23/07:00pm 9.8 7.9 6.7 81 1.5 NE 6 9 3 5 1032.0 - 0.0
23/06:30pm 9.9 7.4 6.6 80 1.5 N 9 11 5 6 1032.0 - 0.0
23/06:00pm 10.2 8.3 6.9 80 1.5 E 6 9 3 5 1031.8 1031.8 0.0
23/05:30pm 10.3 8.8 7.0 80 1.6 ESE 4 9 2 5 1031.8 - 0.0
23/05:00pm 10.2 8.6 6.5 78 1.7 E 4 7 2 4 1031.8 - 0.0
23/04:30pm 10.2 8.2 6.4 77 1.8 SE 6 15 3 8 1031.8 - 0.0
23/04:00pm 10.5 8.4 6.6 77 1.8 SSE 7 15 4 8 1031.8 - 0.0
23/03:30pm 11.0 9.2 7.3 78 1.8 SSE 6 11 3 6 1031.7 - 0.0
23/03:00pm 10.8 9.7 6.7 76 1.9 E 2 6 1 3 1031.8 1031.8 0.0
23/02:30pm 10.8 8.3 6.7 76 1.9 S 9 13 5 7 1032.0 - 0.0
23/02:00pm 11.3 9.6 7.4 77 1.9 SW 6 13 3 7 1032.1 - 0.0
23/01:30pm 11.2 9.8 7.1 76 2.0 WSW 4 7 2 4 1032.3 - 0.0
23/01:00pm 10.9 8.8 6.6 75 2.0 WSW 7 13 4 7 1032.7 - 0.0
23/12:30pm 11.1 9.5 6.5 73 2.2 SSW 4 9 2 5 1032.7 - 0.0
23/12:00pm 11.2 8.7 6.7 74 2.1 SW 9 17 5 9 1033.3 1033.3 0.0
23/11:30am 10.8 7.9 6.6 75 2.0 SSW 11 22 6 12 1033.7 - 0.0
23/11:00am 10.9 8.2 7.2 78 1.8 SSW 11 20 6 11 1033.8 - 0.0
23/10:30am 10.9 8.5 6.8 76 1.9 W 9 15 5 8 1033.7 - 0.0
23/10:00am 10.9 8.9 7.0 77 1.9 SW 7 13 4 7 1033.6 - 0.0
23/09:30am 10.3 8.1 6.3 76 1.9 SW 7 17 4 9 1033.6 - 0.0
23/09:00am 10.3 8.3 6.3 76 1.9 S 6 17 3 9 1033.6 1033.6 0.0
23/08:30am 10.2 7.2 6.2 76 1.9 SSW 11 19 6 10 1033.5 - 0.0
23/08:00am 10.1 6.8 6.3 77 1.8 SSW 13 24 7 13 1033.4 - 0.0
23/07:30am 10.0 8.3 6.0 76 1.9 W 4 9 2 5 1033.3 - 0.0
23/07:00am 10.2 7.7 6.5 78 1.7 SW 9 17 5 9 1033.1 - 0.0
23/06:30am 10.3 6.6 6.5 77 1.8 SW 15 24 8 13 1032.8 - 0.0
23/06:00am 10.4 7.9 6.7 78 1.7 SW 9 15 5 8 1032.6 1032.6 0.0
23/05:30am 10.4 7.1 6.5 77 1.8 SW 13 20 7 11 1032.3 - 0.0
23/05:00am 10.5 7.6 6.6 77 1.8 SW 11 19 6 10 1032.2 - 0.0
23/04:30am 10.4 7.9 6.4 76 1.9 SW 9 13 5 7 1032.1 - 0.0
23/04:00am 10.4 8.2 6.2 75 2.0 SSW 7 13 4 7 1032.1 - 0.0
23/03:30am 10.7 8.8 6.6 76 1.9 SSW 6 11 3 6 1032.2 - 0.0
23/03:00am 10.5 8.3 6.3 75 1.9 SSW 7 15 4 8 1032.2 1032.2 0.0
23/02:30am 10.6 8.1 6.4 75 2.0 SSW 9 17 5 9 1032.3 - 0.0
23/02:00am 10.6 7.6 6.2 74 2.1 SSW 11 19 6 10 1032.4 - 0.0
23/01:30am 10.7 7.7 6.1 73 2.1 SSW 11 19 6 10 1032.5 - 0.0
23/01:00am 10.6 8.9 5.8 72 2.2 S 4 13 2 7 1032.6 - 0.0
23/12:30am 10.9 8.7 6.3 73 2.2 SSW 7 15 4 8 1032.7 - 0.0
23/12:00am 10.9 8.3 6.1 72 2.2 SSW 9 20 5 11 1032.8 1032.8 0.0
 
Date/Time
EST
Temp
°C
App
Temp
°C
Dew
Point
Rel
Hum
%
Delta-T
°C
Wind Press
QNH
hPa
Press
MSL
hPa
Rain
since 9 am
mm
Dir
 
Spd
km/h
Gust
km/h
Spd
kts
Gust
kts
22/11:30pm 11.2 7.5 6.3 72 2.3 SSW 15 24 8 13 1032.8 - 0.0
22/11:00pm 11.1 8.4 5.8 70 2.5 S 9 19 5 10 1032.9 - 0.0
22/10:30pm 11.3 8.3 6.2 71 2.4 SW 11 17 6 9 1032.9 - 0.0
22/10:00pm 11.2 6.6 5.7 69 2.6 SSW 19 26 10 14 1033.0 - 0.0
22/09:30pm 11.1 8.5 6.0 71 2.4 SSW 9 13 5 7 1032.9 - 0.0
22/09:00pm 11.3 8.0 6.4 72 2.3 SSW 13 20 7 11 1032.9 1032.9 0.0
22/08:30pm 11.0 7.6 5.7 70 2.5 SW 13 19 7 10 1032.8 - 0.0
22/08:00pm 11.3 7.2 6.4 72 2.3 SW 17 24 9 13 1032.5 - 0.0
22/07:30pm 11.2 7.4 5.9 70 2.5 SSW 15 22 8 12 1032.5 - 0.0
22/07:00pm 11.1 8.0 5.6 69 2.5 SW 11 19 6 10 1032.3 - 0.0
22/06:30pm 11.3 7.2 6.0 70 2.5 SSW 17 28 9 15 1032.1 - 0.0
22/06:00pm 11.4 8.8 6.3 71 2.4 SW 9 17 5 9 1031.9 1031.9 0.0
22/05:30pm 11.2 6.7 5.9 70 2.5 SSW 19 28 10 15 1031.7 - 0.0
22/05:00pm 11.2 7.5 6.1 71 2.4 SSW 15 24 8 13 1031.6 - 0.0
22/04:30pm 11.2 7.4 5.7 69 2.6 SW 15 20 8 11 1031.6 - 0.0
22/04:00pm 11.3 8.3 5.8 69 2.6 SSW 11 15 6 8 1031.7 - 0.0
22/03:30pm 11.4 7.6 5.7 68 2.7 SSW 15 28 8 15 1031.5 - 0.0
22/03:00pm 11.4 8.4 5.9 69 2.5 SW 11 24 6 13 1031.4 1031.4 0.0
22/02:30pm 11.5 8.2 6.2 70 2.5 SW 13 20 7 11 1031.2 - 0.0
22/02:00pm 11.5 8.6 6.4 71 2.4 SW 11 17 6 9 1031.2 - 0.0
22/01:30pm 11.6 7.9 6.5 71 2.4 SW 15 24 8 13 1031.0 - 0.0
22/01:00pm 11.7 7.9 6.0 68 2.7 SW 15 24 8 13 1031.0 - 0.0
22/12:30pm 11.9 9.5 6.8 71 2.4 SW 9 15 5 8 1031.1 - 0.0
22/12:00pm 12.0 9.5 6.7 70 2.5 SW 9 13 5 7 1031.4 1031.4 0.0
22/11:30am 11.9 8.6 6.6 70 2.5 SW 13 22 7 12 1031.6 - 0.0
22/11:00am 11.8 8.8 5.9 67 2.8 SW 11 19 6 10 1031.6 - 0.0
22/10:30am 11.7 8.7 5.8 67 2.8 WSW 11 20 6 11 1031.5 - 0.0
22/10:00am 11.8 8.3 5.4 65 3.0 SW 13 24 7 13 1031.3 - 0.0
22/09:30am 11.9 9.3 6.2 68 2.7 W 9 17 5 9 1031.1 - 0.0
22/09:00am 11.8 8.5 6.3 69 2.6 SW 13 28 7 15 1031.0 1031.0 0.2
22/08:30am 11.9 9.1 5.3 64 3.1 SSW 9 17 5 9 1030.9 - 0.2
22/08:00am 12.0 9.6 6.9 71 2.4 SW 9 15 5 8 1030.6 - 0.2
22/07:30am 11.9 8.9 6.0 67 2.8 SW 11 17 6 9 1030.3 - 0.2
22/07:00am 11.9 8.9 5.8 66 2.9 SW 11 17 6 9 1030.1 - 0.2
22/06:30am 11.9 7.6 5.1 63 3.1 SSW 17 28 9 15 1029.9 - 0.2
22/06:00am 12.1 8.8 6.4 68 2.7 SW 13 20 7 11 1029.3 1029.3 0.2
22/05:30am 12.0 8.7 6.5 69 2.6 SW 13 19 7 10 1029.1 - 0.2
22/05:00am 12.0 9.6 7.1 72 2.4 W 9 19 5 10 1028.9 - 0.2
22/04:30am 12.1 9.8 7.4 73 2.3 WSW 9 20 5 11 1028.8 - 0.2
22/04:00am 12.1 9.7 7.2 72 2.4 W 9 17 5 9 1028.8 - 0.2
22/03:30am 12.2 9.8 7.1 71 2.5 WSW 9 17 5 9 1028.7 - 0.2
22/03:00am 12.3 10.0 7.4 72 2.4 WSW 9 17 5 9 1028.6 1028.6 0.2
22/02:30am 12.3 9.9 7.0 70 2.6 SW 9 19 5 10 1028.5 - 0.2
22/02:00am 12.2 10.2 7.3 72 2.4 WSW 7 13 4 7 1028.4 - 0.2
22/01:30am 12.3 9.7 7.6 73 2.3 SSW 11 22 6 12 1028.3 - 0.2
22/01:00am 12.4 10.2 7.9 74 2.2 SW 9 17 5 9 1028.1 - 0.2
22/12:30am 12.5 10.0 8.2 75 2.1 WSW 11 22 6 12 1028.3 - 0.2
22/12:00am 12.5 10.0 8.2 75 2.1 WSW 11 20 6 11 1028.0 1028.1 0.2
 
Date/Time
EST
Temp
°C
App
Temp
°C
Dew
Point
Rel
Hum
%
Delta-T
°C
Wind Press
QNH
hPa
Press
MSL
hPa
Rain
since 9 am
mm
Dir
 
Spd
km/h
Gust
km/h
Spd
kts
Gust
kts
21/11:30pm 12.5 10.1 8.6 77 1.9 W 11 20 6 11 1028.0 - 0.2
21/11:00pm 12.5 10.1 8.8 78 1.9 W 11 19 6 10 1028.0 - 0.2
21/10:30pm 12.4 9.7 8.9 79 1.8 WSW 13 20 7 11 1027.8 - 0.2
21/10:00pm 12.5 9.8 9.1 80 1.7 WSW 13 30 7 16 1027.6 - 0.2
21/09:30pm 12.4 10.2 9.4 82 1.5 W 11 24 6 13 1027.6 - 0.2
21/09:00pm 12.4 9.9 9.6 83 1.4 WSW 13 19 7 10 1027.4 1027.5 0.2
21/08:30pm 12.5 10.4 9.7 83 1.4 W 11 19 6 10 1027.2 - 0.2
21/08:00pm 12.3 10.0 9.0 80 1.7 WSW 11 19 6 10 1027.1 - 0.2
21/07:30pm 12.2 9.9 8.9 80 1.7 W 11 26 6 14 1027.0 - 0.2
21/07:00pm 12.3 10.2 8.4 77 1.9 SW 9 19 5 10 1026.6 - 0.2
21/06:30pm 12.6 10.3 9.1 79 1.8 WSW 11 15 6 8 1026.4 - 0.2
21/06:00pm 12.6 10.3 9.1 79 1.8 WSW 11 20 6 11 1026.0 1026.1 0.2
21/05:30pm 12.2 9.9 9.0 81 1.6 SW 11 19 6 10 1025.7 - 0.2
21/05:00pm 12.3 10.4 9.1 81 1.6 WSW 9 15 5 8 1025.5 - 0.2
21/04:30pm 12.4 10.5 9.2 81 1.6 SW 9 15 5 8 1025.3 - 0.2
21/04:00pm 12.7 10.5 9.2 79 1.8 SW 11 17 6 9 1025.1 - 0.2
21/03:30pm 13.2 10.2 9.1 76 2.1 SW 15 20 8 11 1024.7 - 0.2
21/03:00pm 12.9 10.7 9.5 80 1.7 WSW 11 17 6 9 1024.7 1024.7 0.2
21/02:30pm 13.7 11.7 8.7 72 2.5 SW 9 15 5 8 1024.5 - 0.2
21/02:00pm 13.3 11.4 9.0 75 2.2 SW 9 15 5 8 1024.5 - 0.2
21/01:30pm 12.6 10.8 9.6 82 1.5 SSW 9 17 5 9 1024.5 - 0.2
21/01:00pm 12.9 11.3 10.1 83 1.4 SW 9 15 5 8 1024.6 - 0.2
21/12:30pm 12.9 11.3 10.3 84 1.3 SW 9 15 5 8 1024.9 - 0.2
21/12:00pm 11.9 9.4 9.6 86 1.2 SW 13 22 7 12 1025.0 1025.0 0.2
21/11:30am 12.6 10.9 10.0 84 1.3 S 9 17 5 9 1025.2 - 0.2
21/11:00am 11.8 9.7 9.7 87 1.1 S 11 20 6 11 1025.3 - 0.2
21/10:30am 11.0 8.4 9.4 90 0.8 SSE 13 22 7 12 1025.2 - 0.2
21/10:00am 11.1 9.2 9.0 87 1.0 WSW 9 17 5 9 1024.9 - 0.0
21/09:30am 11.4 9.6 9.3 87 1.1 SSW 9 15 5 8 1024.6 - 0.0
21/09:00am 11.0 8.3 8.9 87 1.0 SW 13 19 7 10 1024.4 1024.4 3.0
21/08:30am 10.3 8.7 8.6 89 0.8 SSW 7 15 4 8 1024.3 - 3.0
21/08:00am 10.6 8.6 8.7 88 0.9 SSW 9 20 5 11 1023.9 - 3.0
21/07:30am 10.1 7.6 8.4 89 0.8 SW 11 20 6 11 1023.6 - 3.0
21/07:00am 10.9 7.2 8.1 83 1.4 SSW 17 28 9 15 1023.1 - 2.8
21/06:30am 10.8 6.1 7.7 81 1.5 SW 22 41 12 22 1022.8 - 2.8
21/06:00am 11.5 7.0 6.2 70 2.5 SSW 19 30 10 16 1022.4 1022.4 2.8
21/05:30am 11.4 7.1 6.9 74 2.2 SSW 19 24 10 13 1022.1 - 2.8
21/05:00am 11.7 4.8 7.4 75 2.1 SSW 33 43 18 23 1021.9 - 2.8
21/04:30am 11.8 6.2 5.4 65 3.0 SSW 24 33 13 18 1021.7 - 2.8
21/04:00am 11.6 5.7 4.1 60 3.4 SSW 24 32 13 17 1021.5 - 2.8
21/03:30am 11.5 4.7 5.2 65 2.9 SSW 30 39 16 21 1021.5 - 2.8
21/03:00am 11.7 5.2 4.7 62 3.2 SSW 28 41 15 22 1021.3 1021.3 2.8
21/02:30am 11.4 4.8 6.1 70 2.5 SSW 30 43 16 23 1021.4 - 2.8
21/02:00am 11.6 5.7 4.1 60 3.4 SSW 24 33 13 18 1021.2 - 2.8
21/01:30am 11.4 5.5 5.7 68 2.7 SSW 26 39 14 21 1021.2 - 2.8
21/01:00am 11.2 5.9 5.1 66 2.8 SSW 22 37 12 20 1021.2 - 2.8
21/12:30am 11.1 5.5 5.2 67 2.7 SSW 24 35 13 19 1021.0 - 2.8
21/12:00am 11.0 4.3 5.5 69 2.5 SSW 30 43 16 23 1021.1 1021.1 2.8
 
Date/Time
EST
Temp
°C
App
Temp
°C
Dew
Point
Rel
Hum
%
Delta-T
°C
Wind Press
QNH
hPa
Press
MSL
hPa
Rain
since 9 am
mm
Dir
 
Spd
km/h
Gust
km/h
Spd
kts
Gust
kts
20/11:31pm 11.1 4.8 5.8 70 2.5 SSW 28 46 15 25 1021.0 - 2.8
20/11:30pm 11.2 4.6 5.9 70 2.5 SSW 30 46 16 25 1021.0 - 2.8
20/11:00pm 11.0 4.3 5.7 70 2.5 SSW 30 44 16 24 1020.7 - 2.8
20/10:30pm 11.0 5.1 6.0 71 2.3 SSW 26 39 14 21 1020.6 - 2.8
20/10:00pm 10.9 4.7 6.3 73 2.2 SSW 28 46 15 25 1020.5 - 2.8
20/09:59pm 10.8 4.6 6.0 72 2.2 SSW 28 46 15 25 1020.5 - 2.8

Other Formats:

Comma delimited format used in spreadsheet applications
http://www.bom.gov.au/fwo/IDV60801/IDV60801.94842.axf

JavaScript Object Notation format (JSON) in row-major order
http://www.bom.gov.au/fwo/IDV60801/IDV60801.94842.json